Time;durP1;ratioP1;P1;durP2;ratioP2;P2;SDS_P1;SDS_P2;PMS_P1;PMS_P2;Temp;Humidity;BMP_temperature;BMP_pressure;BME280_temperature;BME280_humidity;BME280_pressure;Samples;Min_cycle;Max_cycle;Signal;HPM_P1;HPM_P2
2022/03/20 00:00:34;;;;;;;9.53;6.83;;;2.60;54.00;2.40;102823.00;;;;4934522;28;94278;-68
2022/03/20 00:03:08;;;;;;;10.87;5.93;;;2.60;54.10;2.30;102824.00;;;;4934606;28;109342;-67
2022/03/20 00:05:35;;;;;;;13.80;8.00;;;2.60;54.70;2.30;102807.00;;;;4944264;28;93368;-68
2022/03/20 00:08:01;;;;;;;10.20;5.63;;;2.70;54.40;2.20;102805.00;;;;4947789;28;92688;-68
2022/03/20 00:10:27;;;;;;;9.93;5.83;;;2.50;54.40;2.20;102805.00;;;;4935430;28;99601;-69
2022/03/20 00:12:53;;;;;;;10.83;6.90;;;2.50;54.60;2.20;102808.00;;;;4916379;28;122885;-68
2022/03/20 00:15:18;;;;;;;12.57;7.40;;;2.40;54.70;2.10;102810.00;;;;4943672;28;93050;-68
2022/03/20 00:17:44;;;;;;;13.37;8.10;;;2.40;54.80;2.10;102817.00;;;;4938348;28;108937;-68
2022/03/20 00:20:11;;;;;;;10.03;6.87;;;2.40;54.90;2.10;102804.00;;;;4940370;28;93103;-69
2022/03/20 00:22:38;;;;;;;11.90;7.03;;;2.30;55.00;2.00;102810.00;;;;4954918;28;93834;-68
2022/03/20 00:25:04;;;;;;;14.60;6.03;;;2.30;55.20;2.00;102797.00;;;;4940568;28;94713;-69
2022/03/20 00:27:32;;;;;;;10.17;6.83;;;2.20;55.30;2.00;102816.00;;;;4934239;28;92861;-67
2022/03/20 00:29:57;;;;;;;12.67;6.37;;;2.30;55.40;1.90;102797.00;;;;4952229;28;110111;-68
2022/03/20 00:32:23;;;;;;;12.27;7.50;;;2.20;55.60;1.90;102795.00;;;;4953259;28;120276;-68
2022/03/20 00:34:49;;;;;;;8.33;6.20;;;2.10;55.70;1.90;102799.00;;;;4954223;28;98749;-68
2022/03/20 00:37:14;;;;;;;11.83;6.90;;;2.10;55.80;1.80;102806.00;;;;4954993;28;93004;-68
2022/03/20 00:39:40;;;;;;;9.27;6.53;;;2.10;55.90;1.80;102803.00;;;;4953228;28;120823;-68
2022/03/20 00:42:06;;;;;;;9.97;6.27;;;2.10;56.00;1.70;102800.00;;;;4953586;28;121778;-69
2022/03/20 00:44:32;;;;;;;9.63;6.37;;;2.00;56.00;1.70;102801.00;;;;4949783;28;92827;-68
2022/03/20 00:46:57;;;;;;;9.00;7.23;;;1.90;56.10;1.60;102806.00;;;;4934467;28;94072;-69
2022/03/20 00:49:23;;;;;;;11.87;6.03;;;1.90;56.40;1.60;102788.00;;;;4934026;28;123239;-67
2022/03/20 00:51:49;;;;;;;11.00;7.23;;;1.90;56.50;1.60;102806.00;;;;4934563;28;94422;-68
2022/03/20 00:54:14;;;;;;;12.90;7.27;;;1.90;56.70;1.60;102802.00;;;;4933885;28;110145;-68
2022/03/20 00:56:40;;;;;;;11.33;7.07;;;1.90;56.70;1.50;102809.00;;;;4933668;28;108017;-69
2022/03/20 00:59:06;;;;;;;9.87;7.13;;;1.80;56.70;1.50;102808.00;;;;4933963;28;113788;-68
2022/03/20 01:01:32;;;;;;;12.83;7.00;;;1.70;56.90;1.50;102806.00;;;;4933154;28;112623;-68
2022/03/20 01:03:59;;;;;;;17.70;8.00;;;1.70;57.00;1.40;102797.00;;;;4917139;28;92299;-69
2022/03/20 01:06:24;;;;;;;11.23;6.80;;;1.70;57.00;1.40;102800.00;;;;4933566;28;109045;-68
2022/03/20 01:08:50;;;;;;;10.63;7.37;;;1.70;57.10;1.40;102792.00;;;;4941788;28;115291;-69
2022/03/20 01:11:17;;;;;;;10.53;6.67;;;1.70;57.10;1.30;102799.00;;;;4934717;28;102677;-67
2022/03/20 01:13:43;;;;;;;11.87;6.83;;;1.60;57.20;1.30;102793.00;;;;4943250;28;92874;-69
2022/03/20 01:16:09;;;;;;;11.23;7.07;;;1.20;57.10;1.30;102796.00;;;;4915522;28;99302;-68
2022/03/20 01:18:35;;;;;;;11.07;7.03;;;1.60;57.40;1.20;102790.00;;;;4946841;28;105382;-69
2022/03/20 01:21:03;;;;;;;10.07;6.17;;;1.60;57.50;1.20;102791.00;;;;4953259;28;104000;-68
2022/03/20 01:23:29;;;;;;;8.47;6.70;;;1.50;57.50;1.20;102788.00;;;;4954342;28;92719;-68
2022/03/20 01:25:55;;;;;;;12.47;6.93;;;1.50;57.70;1.20;102787.00;;;;4951034;28;92808;-67
2022/03/20 01:28:23;;;;;;;10.60;5.93;;;1.50;57.70;1.20;102775.00;;;;4954391;28;92446;-69
2022/03/20 01:30:49;;;;;;;13.40;7.97;;;1.40;57.70;1.10;102786.00;;;;4951927;28;93045;-69
2022/03/20 01:33:16;;;;;;;9.03;6.27;;;1.40;57.90;1.10;102786.00;;;;4953800;28;92768;-67
2022/03/20 01:35:42;;;;;;;15.37;6.53;;;1.40;58.00;1.10;102781.00;;;;4942618;28;93723;-67
2022/03/20 01:38:08;;;;;;;9.03;6.27;;;1.40;58.10;1.10;102789.00;;;;4933597;28;101618;-67
2022/03/20 01:40:34;;;;;;;9.37;6.70;;;1.40;58.10;1.10;102786.00;;;;4932234;28;113655;-69
2022/03/20 01:43:01;;;;;;;8.67;6.53;;;1.40;58.10;1.10;102788.00;;;;4915477;28;102991;-68
2022/03/20 01:45:27;;;;;;;14.27;7.37;;;1.40;58.20;1.10;102785.00;;;;4939859;28;93844;-67
2022/03/20 01:47:54;;;;;;;13.70;6.93;;;1.40;58.20;1.10;102774.00;;;;4932899;28;114177;-69
2022/03/20 01:50:27;;;;;;;12.87;7.70;;;1.50;58.20;1.10;102777.00;;;;4933553;28;122461;-69
2022/03/20 01:52:54;;;;;;;11.20;6.17;;;1.40;58.20;1.10;102779.00;;;;4916326;28;92105;-67
2022/03/20 01:55:24;;;;;;;10.93;7.30;;;1.40;58.40;1.10;102770.00;;;;4915966;28;92697;-69
2022/03/20 01:57:50;;;;;;;7.90;7.10;;;1.40;58.40;1.00;102767.00;;;;4933929;28;93187;-69
2022/03/20 02:00:19;;;;;;;10.97;7.33;;;1.90;58.70;1.00;102770.00;;;;4931695;28;113448;-68
2022/03/20 02:02:45;;;;;;;9.33;6.27;;;1.30;58.60;1.00;102767.00;;;;4934029;28;92633;-69
2022/03/20 02:05:11;;;;;;;6.50;4.97;;;1.30;58.70;1.00;102771.00;;;;4914047;28;94802;-67
2022/03/20 02:07:39;;;;;;;11.33;6.20;;;1.20;58.70;0.90;102768.00;;;;4914286;28;108872;-68
2022/03/20 02:10:08;;;;;;;8.80;5.70;;;1.20;58.80;0.90;102774.00;;;;4938595;28;94026;-69
2022/03/20 02:12:38;;;;;;;7.77;6.77;;;1.20;58.80;0.80;102761.00;;;;4950098;28;110432;-69
2022/03/20 02:15:09;;;;;;;8.40;6.40;;;1.10;58.80;0.80;102757.00;;;;4914954;28;98205;-69
2022/03/20 02:17:36;;;;;;;12.33;6.90;;;1.10;59.00;0.70;102762.00;;;;4903143;28;94820;-68
2022/03/20 02:20:08;;;;;;;11.00;7.00;;;1.00;59.10;0.70;102763.00;;;;4933104;28;115596;-68
2022/03/20 02:22:37;;;;;;;11.53;7.27;;;0.90;59.40;0.60;102762.00;;;;4933739;28;92887;-68
2022/03/20 02:25:08;;;;;;;11.50;6.50;;;1.00;59.50;0.60;102758.00;;;;4930337;28;93655;-67
2022/03/20 02:27:34;;;;;;;9.53;6.80;;;0.90;59.80;0.50;102756.00;;;;4918782;28;93376;-68
2022/03/20 02:30:12;;;;;;;12.03;7.50;;;0.80;59.90;0.50;102746.00;;;;4952965;28;93015;-68
2022/03/20 02:32:43;;;;;;;8.30;6.23;;;0.80;59.90;0.50;102750.00;;;;4951486;28;92945;-68
2022/03/20 02:35:15;;;;;;;10.10;6.17;;;1.50;60.50;0.50;102742.00;;;;4918269;28;92935;-69
2022/03/20 02:37:51;;;;;;;7.83;6.20;;;0.80;60.20;0.50;102751.00;;;;4952946;28;93549;-68
2022/03/20 02:40:20;;;;;;;11.73;6.23;;;0.90;60.50;0.50;102745.00;;;;4952181;28;94206;-68
2022/03/20 02:42:48;;;;;;;10.83;7.20;;;0.80;60.50;0.50;102745.00;;;;4934839;28;92943;-67
2022/03/20 02:45:19;;;;;;;10.93;6.80;;;0.80;60.70;0.50;102747.00;;;;4952671;28;92789;-69
2022/03/20 02:47:47;;;;;;;12.23;7.10;;;0.60;60.70;0.50;102750.00;;;;4934422;28;93004;-69
2022/03/20 02:50:25;;;;;;;11.13;6.80;;;0.70;61.00;0.40;102752.00;;;;4933425;28;93770;-68
2022/03/20 02:53:11;;;;;;;11.67;6.40;;;0.80;61.10;0.40;102752.00;;;;4933355;28;92749;-68
2022/03/20 02:55:40;;;;;;;9.30;6.80;;;0.80;61.20;0.40;102736.00;;;;4952402;28;92798;-68
2022/03/20 02:58:12;;;;;;;9.20;6.23;;;0.70;61.30;0.40;102738.00;;;;4952783;28;93422;-67
2022/03/20 03:00:40;;;;;;;10.43;7.47;;;0.70;61.30;0.40;102738.00;;;;4938250;28;93776;-67
2022/03/20 03:03:10;;;;;;;12.10;8.10;;;0.70;61.40;0.40;102741.00;;;;4911722;28;92991;-69
2022/03/20 03:05:37;;;;;;;9.37;6.00;;;0.70;61.60;0.40;102732.00;;;;4926637;28;93041;-68
2022/03/20 03:10:57;;;;;;;10.13;6.87;;;0.70;61.80;0.40;102742.00;;;;4931484;28;92712;-67
2022/03/20 03:13:30;;;;;;;11.50;7.97;;;0.70;61.80;0.40;102731.00;;;;4935303;28;93057;-69
2022/03/20 03:15:59;;;;;;;9.80;7.03;;;0.70;61.90;0.30;102736.00;;;;4952084;28;93980;-68
2022/03/20 03:18:25;;;;;;;11.13;8.27;;;0.60;62.00;0.30;102734.00;;;;4881986;28;93481;-67
2022/03/20 03:20:52;;;;;;;9.37;5.90;;;0.70;62.30;0.30;102737.00;;;;4951603;28;93644;-69
2022/03/20 03:23:20;;;;;;;9.77;7.50;;;0.60;62.40;0.30;102740.00;;;;4952085;28;102215;-69
2022/03/20 03:25:46;;;;;;;13.43;8.53;;;0.60;62.50;0.30;102736.00;;;;4938757;28;92937;-68
2022/03/20 03:28:11;;;;;;;7.90;5.73;;;0.60;62.50;0.30;102733.00;;;;4922103;28;93081;-67
2022/03/20 03:30:46;;;;;;;11.90;6.60;;;0.60;62.60;0.20;102727.00;;;;4951083;28;121965;-69
2022/03/20 03:33:14;;;;;;;14.17;7.07;;;0.60;62.70;0.20;102731.00;;;;4934499;28;92260;-68
2022/03/20 03:35:42;;;;;;;10.17;6.37;;;0.50;62.80;0.20;102728.00;;;;4932315;28;93010;-68
2022/03/20 03:38:19;;;;;;;11.57;7.23;;;0.50;63.10;0.20;102727.00;;;;4952061;28;93016;-68
2022/03/20 03:40:47;;;;;;;13.40;8.37;;;0.50;63.20;0.20;102737.00;;;;4932290;28;94231;-68
2022/03/20 03:43:15;;;;;;;11.23;7.93;;;0.40;63.40;0.20;102737.00;;;;4952222;28;92736;-69
2022/03/20 03:45:41;;;;;;;11.20;8.10;;;0.50;63.80;0.20;102738.00;;;;4941548;28;92714;-68
2022/03/20 03:48:08;;;;;;;10.80;7.73;;;0.50;63.80;0.20;102730.00;;;;4914059;28;95834;-68
2022/03/20 03:50:36;;;;;;;12.37;8.03;;;0.40;64.10;0.20;102738.00;;;;4931972;28;93369;-68
2022/03/20 03:53:03;;;;;;;9.97;6.20;;;0.50;64.10;0.20;102733.00;;;;4931837;28;98372;-68
2022/03/20 03:55:30;;;;;;;15.50;8.90;;;0.50;64.20;0.20;102735.00;;;;4914143;28;92932;-69
2022/03/20 03:57:56;;;;;;;9.70;6.93;;;0.40;64.30;0.20;102730.00;;;;4932905;28;92452;-69
2022/03/20 04:00:24;;;;;;;14.13;8.00;;;0.40;64.40;0.10;102726.00;;;;4931624;28;93005;-68
2022/03/20 04:02:50;;;;;;;10.40;7.40;;;0.50;64.70;0.10;102737.00;;;;4932758;28;93561;-68
2022/03/20 04:05:17;;;;;;;10.07;6.20;;;0.40;64.70;0.00;102742.00;;;;4933859;28;93843;-68
2022/03/20 04:07:45;;;;;;;11.73;7.30;;;0.40;64.90;0.00;102736.00;;;;4935091;28;92942;-69
2022/03/20 04:10:11;;;;;;;12.57;7.40;;;0.30;65.00;0.00;102735.00;;;;4931953;28;92994;-69
2022/03/20 04:12:40;;;;;;;13.03;9.00;;;0.30;65.40;0.00;102741.00;;;;4933971;28;97813;-68
2022/03/20 04:15:11;;;;;;;9.63;6.00;;;0.30;65.60;-0.10;102744.00;;;;4935106;28;92849;-69
2022/03/20 04:17:37;;;;;;;15.93;8.67;;;0.30;65.80;-0.10;102736.00;;;;4936020;28;93836;-70
2022/03/20 04:20:04;;;;;;;12.77;8.83;;;0.30;66.30;-0.10;102726.00;;;;4916394;28;95087;-68
2022/03/20 04:22:30;;;;;;;12.67;7.77;;;0.20;66.50;-0.10;102737.00;;;;4935607;28;92256;-68
2022/03/20 04:24:56;;;;;;;8.70;6.23;;;0.20;67.00;-0.10;102737.00;;;;4940796;28;108302;-68
2022/03/20 04:27:24;;;;;;;11.27;9.03;;;0.10;67.30;-0.20;102738.00;;;;4953405;28;122744;-68
2022/03/20 04:29:49;;;;;;;10.80;7.50;;;0.10;67.20;-0.20;102736.00;;;;4954452;28;94154;-69
2022/03/20 04:32:16;;;;;;;18.47;7.30;;;0.10;67.50;-0.20;102734.00;;;;4954646;28;92994;-68
2022/03/20 04:34:42;;;;;;;13.33;7.20;;;0.10;67.70;-0.20;102739.00;;;;4954566;28;92690;-69
2022/03/20 04:37:10;;;;;;;11.03;7.37;;;0.10;68.20;-0.30;102747.00;;;;4951611;28;118450;-68
2022/03/20 04:39:37;;;;;;;13.23;7.57;;;0.00;68.60;-0.30;102748.00;;;;4954231;28;93780;-68
2022/03/20 04:42:05;;;;;;;9.47;5.90;;;0.00;69.00;-0.30;102754.00;;;;4935870;28;101242;-68
2022/03/20 04:44:31;;;;;;;10.33;7.50;;;0.10;68.90;-0.30;102752.00;;;;4953759;28;92829;-68
2022/03/20 04:46:57;;;;;;;10.70;8.07;;;0.00;69.00;-0.40;102749.00;;;;4934575;28;93765;-68
2022/03/20 05:00:25;;;;;;;13.03;7.57;;;-0.10;70.90;-0.60;102748.00;;;;4932501;28;92788;-68
2022/03/20 05:02:50;;;;;;;11.30;7.87;;;-0.20;71.30;-0.60;102741.00;;;;4938260;28;110066;-68
2022/03/20 05:05:17;;;;;;;12.70;7.80;;;-0.20;72.50;-0.60;102745.00;;;;4953569;28;95362;-68
2022/03/20 05:07:42;;;;;;;14.73;8.20;;;-0.30;72.00;-0.60;102755.00;;;;4952252;28;94081;-69
2022/03/20 05:15:42;;;;;;;15.00;9.87;;;-0.40;73.30;-0.70;102759.00;;;;4942837;28;93715;-68
2022/03/20 05:18:08;;;;;;;17.20;11.50;;;-0.30;73.50;-0.70;102764.00;;;;4954046;28;93919;-68
2022/03/20 05:20:34;;;;;;;22.60;11.97;;;-0.40;74.00;-0.80;102760.00;;;;4951145;28;93907;-68
2022/03/20 05:23:00;;;;;;;16.60;10.23;;;-0.40;74.40;-0.80;102763.00;;;;4915434;28;93140;-69
2022/03/20 05:25:30;;;;;;;11.03;6.90;;;-0.40;74.40;-0.80;102747.00;;;;4931804;28;102542;-68
2022/03/20 05:27:57;;;;;;;11.37;9.27;;;-0.40;74.90;-0.80;102758.00;;;;4933754;28;92650;-70
2022/03/20 05:30:24;;;;;;;8.50;7.60;;;-0.50;74.90;-0.80;102764.00;;;;4915185;28;93332;-69
2022/03/20 05:32:50;;;;;;;10.53;7.43;;;-0.50;75.10;-0.80;102772.00;;;;4934088;28;92704;-67
2022/03/20 05:35:16;;;;;;;17.63;9.77;;;-0.50;75.50;-0.80;102770.00;;;;4934357;28;106714;-69
2022/03/20 05:37:43;;;;;;;11.77;7.60;;;-0.50;76.10;-0.80;102766.00;;;;4916107;28;98193;-69
2022/03/20 05:40:10;;;;;;;13.10;8.47;;;-0.40;76.90;-0.70;102775.00;;;;4916639;28;92749;-67
2022/03/20 05:42:36;;;;;;;15.60;8.40;;;-0.40;77.50;-0.70;102770.00;;;;4933668;28;93010;-68
2022/03/20 05:45:03;;;;;;;11.90;8.23;;;-0.40;77.80;-0.60;102764.00;;;;4919926;28;93709;-68
2022/03/20 05:47:33;;;;;;;10.10;7.47;;;-0.30;77.90;-0.60;102768.00;;;;4952858;28;117366;-68
2022/03/20 05:50:01;;;;;;;14.97;9.23;;;-0.20;78.20;-0.40;102776.00;;;;4943568;28;93170;-68
2022/03/20 05:52:30;;;;;;;12.27;8.77;;;-0.10;78.40;-0.30;102782.00;;;;4933995;28;92735;-68
2022/03/20 05:55:00;;;;;;;13.73;7.50;;;0.00;78.50;-0.20;102774.00;;;;4934463;28;92751;-68
2022/03/20 06:00:16;;;;;;;17.10;9.17;;;0.10;78.50;0.00;102779.00;;;;4931128;28;92837;-68
2022/03/20 06:02:46;;;;;;;10.80;8.00;;;0.30;78.50;0.10;102788.00;;;;4917853;28;92236;-67
2022/03/20 06:05:12;;;;;;;12.87;8.73;;;0.30;78.20;0.20;102773.00;;;;4934005;28;92821;-68
2022/03/20 06:07:43;;;;;;;16.27;8.43;;;0.40;78.10;0.40;102786.00;;;;4933167;28;123104;-68
2022/03/20 06:10:17;;;;;;;15.87;8.50;;;0.60;78.00;0.50;102789.00;;;;4910992;28;93951;-68
2022/03/20 06:12:44;;;;;;;13.87;9.03;;;0.70;77.70;0.60;102775.00;;;;4917071;28;103507;-69
2022/03/20 06:15:10;;;;;;;14.67;10.37;;;0.80;78.20;0.80;102795.00;;;;4943345;28;92831;-68
2022/03/20 06:17:42;;;;;;;14.57;8.67;;;1.20;77.60;1.00;102795.00;;;;4948439;28;94076;-69
2022/03/20 06:20:09;;;;;;;8.77;7.77;;;1.20;77.20;1.20;102791.00;;;;4916483;28;92999;-68
2022/03/20 06:22:36;;;;;;;15.00;9.17;;;1.30;76.60;1.30;102795.00;;;;4947426;28;92879;-69
2022/03/20 06:25:09;;;;;;;17.33;9.97;;;1.50;75.80;1.50;102800.00;;;;4945772;28;92886;-68
2022/03/20 06:28:02;;;;;;;16.00;10.03;;;1.70;75.40;1.70;102797.00;;;;4947589;28;92825;-68
2022/03/20 06:30:32;;;;;;;16.93;9.93;;;1.90;74.50;1.90;102793.00;;;;4949310;28;92949;-68
2022/03/20 06:32:58;;;;;;;16.33;9.13;;;2.80;73.90;2.10;102805.00;;;;4952277;28;104569;-69
2022/03/20 06:35:23;;;;;;;17.33;9.80;;;2.20;72.70;2.30;102795.00;;;;4943232;28;108724;-69
2022/03/20 06:37:50;;;;;;;12.90;8.10;;;2.40;72.20;2.50;102799.00;;;;4915482;28;114800;-68
2022/03/20 06:40:16;;;;;;;18.07;9.10;;;2.60;70.70;2.70;102802.00;;;;4933580;28;93680;-69
2022/03/20 06:42:43;;;;;;;12.43;8.57;;;2.80;70.70;2.90;102802.00;;;;4933633;28;92883;-68
2022/03/20 06:45:11;;;;;;;16.77;10.27;;;2.60;69.00;3.10;102815.00;;;;4933491;28;93059;-68
2022/03/20 06:47:38;;;;;;;18.27;9.73;;;3.30;67.20;3.20;102812.00;;;;4949957;28;93543;-69
2022/03/20 06:50:06;;;;;;;16.77;8.83;;;3.20;65.60;3.30;102818.00;;;;4951974;28;107645;-69
2022/03/20 06:52:32;;;;;;;19.37;10.77;;;3.50;66.10;3.50;102819.00;;;;4934441;28;92032;-68
2022/03/20 06:55:03;;;;;;;19.27;10.80;;;3.70;64.00;3.70;102822.00;;;;4949430;28;110294;-68
2022/03/20 06:57:30;;;;;;;15.80;10.47;;;3.70;63.20;3.80;102823.00;;;;4933479;28;93443;-69
2022/03/20 06:59:57;;;;;;;19.67;12.53;;;3.90;63.00;4.00;102829.00;;;;4951000;28;94033;-69
2022/03/20 07:02:23;;;;;;;17.80;11.57;;;4.10;62.50;4.10;102829.00;;;;4933870;28;92699;-67
2022/03/20 07:04:51;;;;;;;22.20;11.07;;;4.20;62.10;4.30;102830.00;;;;4947696;28;93187;-66
2022/03/20 07:07:18;;;;;;;13.90;9.23;;;4.30;61.60;4.40;102823.00;;;;4937828;28;94123;-67
2022/03/20 07:09:44;;;;;;;18.23;11.93;;;4.60;60.20;4.60;102823.00;;;;4932575;28;93045;-68
2022/03/20 07:12:11;;;;;;;19.33;11.50;;;4.70;59.30;4.70;102820.00;;;;4928280;28;102244;-67
2022/03/20 07:14:41;;;;;;;15.33;11.03;;;4.80;59.30;4.80;102819.00;;;;4929321;28;92994;-67
2022/03/20 07:17:10;;;;;;;17.23;11.47;;;4.90;58.20;4.90;102821.00;;;;4929199;28;93348;-68
2022/03/20 07:19:37;;;;;;;20.67;11.20;;;5.00;58.00;5.10;102832.00;;;;4923572;28;104430;-67
2022/03/20 07:22:05;;;;;;;15.80;8.93;;;5.10;57.80;5.20;102833.00;;;;4929394;28;93312;-67
2022/03/20 07:24:33;;;;;;;16.40;9.77;;;5.30;57.00;5.30;102832.00;;;;4928838;28;94007;-67
2022/03/20 07:29:43;;;;;;;13.90;9.50;;;5.50;57.50;5.70;102837.00;;;;4905480;28;92930;-68
2022/03/20 07:32:09;;;;;;;16.77;10.23;;;5.90;56.10;5.90;102835.00;;;;4927900;28;113045;-67
2022/03/20 07:34:39;;;;;;;14.60;9.97;;;5.90;55.60;6.00;102836.00;;;;4928259;28;92978;-68
2022/03/20 07:37:06;;;;;;;19.07;12.00;;;6.20;55.70;6.10;102832.00;;;;4909875;28;93223;-68
2022/03/20 07:39:34;;;;;;;17.87;10.53;;;6.10;54.70;6.30;102826.00;;;;4929959;28;92962;-68
2022/03/20 07:41:59;;;;;;;17.37;9.37;;;6.30;53.90;6.50;102831.00;;;;4937517;28;92108;-67
2022/03/20 07:44:26;;;;;;;16.13;9.17;;;6.40;54.50;6.70;102837.00;;;;4931432;28;108185;-68
2022/03/20 07:46:55;;;;;;;16.17;9.20;;;7.10;53.70;6.80;102836.00;;;;4913360;28;94548;-67
2022/03/20 07:49:21;;;;;;;15.10;9.17;;;6.80;52.50;6.90;102830.00;;;;4931616;28;93879;-67
2022/03/20 07:51:47;;;;;;;15.53;10.07;;;6.90;52.30;7.00;102829.00;;;;4932404;28;92870;-68
2022/03/20 07:54:14;;;;;;;14.83;8.97;;;7.00;51.60;7.10;102824.00;;;;4934824;28;92810;-68
2022/03/20 07:56:40;;;;;;;13.43;9.20;;;7.60;51.80;7.20;102831.00;;;;4931885;28;93112;-68
2022/03/20 07:59:06;;;;;;;23.77;9.77;;;7.20;51.00;7.30;102817.00;;;;4931457;28;105212;-68
2022/03/20 08:01:34;;;;;;;14.83;9.30;;;7.20;51.00;7.60;102827.00;;;;4932276;28;92710;-68
2022/03/20 08:04:00;;;;;;;15.43;9.17;;;7.90;51.00;7.80;102834.00;;;;4931971;28;100457;-68
2022/03/20 08:06:27;;;;;;;13.10;8.70;;;7.80;50.10;7.80;102827.00;;;;4932317;28;92131;-68
2022/03/20 08:08:52;;;;;;;16.80;8.60;;;7.90;49.70;8.00;102828.00;;;;4931877;28;92723;-67
2022/03/20 08:11:19;;;;;;;14.00;9.50;;;8.00;49.70;8.30;102833.00;;;;4931188;28;92932;-68
2022/03/20 08:13:45;;;;;;;17.67;9.53;;;8.20;50.10;8.60;102835.00;;;;4934538;28;94032;-68
2022/03/20 08:16:21;;;;;;;17.30;9.83;;;8.50;48.80;8.70;102830.00;;;;4935755;28;93503;-68
2022/03/20 08:18:48;;;;;;;15.07;8.30;;;8.60;48.00;8.90;102834.00;;;;4930334;28;93208;-69
2022/03/20 08:21:14;;;;;;;12.43;7.70;;;8.80;47.40;9.00;102834.00;;;;4932098;28;92825;-68
2022/03/20 08:23:41;;;;;;;12.70;7.70;;;9.00;47.00;9.10;102829.00;;;;4931779;28;103221;-69
2022/03/20 08:26:08;;;;;;;17.00;9.07;;;9.10;46.40;9.30;102839.00;;;;4930439;28;114429;-67
2022/03/20 08:28:39;;;;;;;11.83;7.07;;;9.20;46.80;9.70;102844.00;;;;4931582;28;93597;-67
2022/03/20 08:31:06;;;;;;;15.20;8.33;;;9.50;45.90;9.80;102840.00;;;;4931956;28;92465;-66
2022/03/20 08:33:32;;;;;;;16.50;8.63;;;9.70;45.50;9.90;102850.00;;;;4931588;28;92818;-68
2022/03/20 08:36:00;;;;;;;16.40;7.73;;;9.90;45.20;10.10;102831.00;;;;4934457;28;99942;-68
2022/03/20 08:38:25;;;;;;;12.40;8.47;;;10.00;45.70;10.40;102838.00;;;;4930140;28;93850;-67
2022/03/20 08:40:51;;;;;;;15.83;8.27;;;10.20;44.70;10.50;102839.00;;;;4930501;28;108468;-68
2022/03/20 08:43:17;;;;;;;8.77;6.90;;;10.40;45.10;10.90;102838.00;;;;4928244;28;108832;-68
2022/03/20 08:45:44;;;;;;;17.67;7.63;;;10.80;43.90;11.00;102840.00;;;;4940579;28;93129;-69
2022/03/20 08:48:10;;;;;;;10.13;6.57;;;10.90;43.50;11.30;102840.00;;;;4932907;28;92686;-69
2022/03/20 08:50:37;;;;;;;11.10;6.33;;;11.10;41.30;11.30;102828.00;;;;4899524;28;93192;-68
2022/03/20 08:53:03;;;;;;;14.17;7.10;;;11.20;40.50;11.10;102831.00;;;;4932377;28;92844;-67
2022/03/20 08:55:33;;;;;;;12.40;6.83;;;11.10;39.60;11.10;102826.00;;;;4931645;28;97781;-68
2022/03/20 08:57:59;;;;;;;10.20;6.90;;;11.10;40.30;11.20;102833.00;;;;4922189;28;94231;-67
2022/03/20 09:00:25;;;;;;;9.43;6.33;;;11.20;40.40;11.30;102837.00;;;;4931261;28;92811;-68
2022/03/20 09:02:52;;;;;;;11.37;6.50;;;11.20;40.10;11.50;102826.00;;;;4931564;28;93931;-67
2022/03/20 09:05:19;;;;;;;8.20;5.27;;;11.40;39.70;11.40;102832.00;;;;4932246;28;93781;-68
2022/03/20 09:07:47;;;;;;;11.40;6.97;;;11.40;38.80;11.30;102825.00;;;;4930762;28;95988;-66
2022/03/20 09:10:15;;;;;;;9.23;6.30;;;11.30;38.30;11.10;102823.00;;;;4912998;28;93023;-67
2022/03/20 09:12:44;;;;;;;7.57;5.57;;;11.20;37.60;11.20;102818.00;;;;4931136;28;93236;-67
2022/03/20 09:15:13;;;;;;;10.93;5.87;;;11.20;38.40;11.40;102826.00;;;;4931174;28;92705;-68
2022/03/20 09:20:29;;;;;;;9.30;5.53;;;11.40;37.70;11.60;102814.00;;;;4935921;28;92099;-66
2022/03/20 09:22:55;;;;;;;9.90;6.40;;;11.50;37.70;11.80;102811.00;;;;4930166;28;103026;-67
2022/03/20 09:25:23;;;;;;;9.70;6.43;;;11.60;38.40;12.00;102802.00;;;;4913542;28;92922;-67
2022/03/20 09:27:48;;;;;;;9.47;5.50;;;11.90;37.30;12.10;102800.00;;;;4930083;28;94158;-67
2022/03/20 09:30:19;;;;;;;7.43;5.03;;;12.00;37.00;12.20;102799.00;;;;4930587;28;92940;-67
2022/03/20 09:32:45;;;;;;;8.30;5.37;;;12.10;36.40;12.10;102798.00;;;;4934667;28;93071;-68
2022/03/20 09:35:11;;;;;;;8.43;5.20;;;12.00;35.80;12.20;102799.00;;;;4925528;28;122890;-67
2022/03/20 09:37:38;;;;;;;7.33;5.43;;;12.10;36.70;12.40;102803.00;;;;4939335;28;93719;-68
2022/03/20 09:40:05;;;;;;;6.67;4.90;;;12.20;36.30;12.50;102805.00;;;;4932935;28;93010;-67
2022/03/20 09:42:31;;;;;;;9.63;5.43;;;12.30;35.80;12.60;102796.00;;;;4930531;28;92876;-66
2022/03/20 09:44:57;;;;;;;6.73;4.93;;;12.40;35.70;12.80;102797.00;;;;4938231;28;117831;-68
2022/03/20 09:47:23;;;;;;;6.77;3.60;;;12.50;36.00;12.80;102799.00;;;;4912402;28;121131;-67
2022/03/20 09:49:50;;;;;;;8.27;4.70;;;12.70;34.90;12.90;102787.00;;;;4931795;28;92736;-67
2022/03/20 09:52:19;;;;;;;7.47;3.90;;;12.70;33.70;12.70;102774.00;;;;4943043;28;93974;-67
2022/03/20 09:54:46;;;;;;;6.47;4.17;;;12.70;33.20;12.90;102780.00;;;;4933177;28;93980;-68
2022/03/20 09:57:12;;;;;;;7.70;3.67;;;12.70;33.50;13.20;102782.00;;;;4911272;28;122503;-70
2022/03/20 09:59:40;;;;;;;6.00;3.53;;;13.10;34.00;13.30;102783.00;;;;4911016;28;103741;-71
2022/03/20 10:02:09;;;;;;;9.03;4.67;;;13.10;33.20;13.30;102778.00;;;;4929328;28;93282;-72
2022/03/20 10:04:57;;;;;;;8.30;4.83;;;13.10;33.20;13.40;102784.00;;;;4937236;28;95076;-71
2022/03/20 10:07:27;;;;;;;6.43;4.37;;;13.20;32.90;13.30;102783.00;;;;4905446;28;92948;-71
2022/03/20 10:10:28;;;;;;;10.40;4.70;;;13.20;32.00;13.40;102787.00;;;;4929922;28;92165;-72
2022/03/20 10:12:57;;;;;;;5.23;3.90;;;13.20;32.80;13.70;102778.00;;;;4902344;28;92802;-70
2022/03/20 10:15:39;;;;;;;6.60;4.37;;;13.40;32.20;13.80;102777.00;;;;4929816;28;92991;-71
2022/03/20 10:18:10;;;;;;;4.27;3.63;;;13.60;32.10;14.10;102772.00;;;;4915750;28;93956;-71
2022/03/20 10:20:48;;;;;;;5.40;4.50;;;13.80;32.40;14.30;102796.00;;;;4895056;28;93321;-72
2022/03/20 10:23:36;;;;;;;8.97;3.63;;;14.00;32.10;14.10;102791.00;;;;4930420;28;93054;-71
2022/03/20 10:26:09;;;;;;;18.73;2.80;;;14.00;29.50;14.00;102788.00;;;;4911175;28;93267;-71
2022/03/20 10:28:40;;;;;;;4.50;3.03;;;14.00;29.80;13.90;102776.00;;;;4933118;28;93002;-70
2022/03/20 10:31:12;;;;;;;7.22;2.92;;;13.90;29.70;14.00;102772.00;;;;4930825;28;93129;-70
2022/03/20 10:33:40;;;;;;;5.07;3.37;;;13.90;29.70;14.10;102776.00;;;;4911745;28;92936;-71
2022/03/20 10:36:16;;;;;;;5.97;3.77;;;13.90;29.50;14.00;102778.00;;;;4928882;28;93298;-70
2022/03/20 10:38:47;;;;;;;7.68;3.50;;;13.90;29.10;14.30;102769.00;;;;4933491;28;92707;-72
2022/03/20 10:41:34;;;;;;;6.27;3.67;;;14.10;29.40;14.50;102758.00;;;;4929505;28;92844;-71
2022/03/20 10:44:01;;;;;;;4.77;3.57;;;14.20;28.90;14.30;102774.00;;;;4912087;28;93795;-71
2022/03/20 10:46:32;;;;;;;3.10;2.77;;;14.20;28.20;14.20;102760.00;;;;4927688;28;115078;-71
2022/03/20 10:49:04;;;;;;;4.07;2.67;;;14.20;28.00;14.60;102768.00;;;;4934180;28;93020;-72
2022/03/20 10:51:41;;;;;;;3.10;2.75;;;14.30;29.00;15.00;102770.00;;;;4895163;28;93124;-71
2022/03/20 10:54:20;;;;;;;3.45;2.80;;;14.60;28.90;15.00;102769.00;;;;4932526;28;92985;-71
2022/03/20 10:56:53;;;;;;;5.47;3.97;;;14.80;28.10;15.10;102749.00;;;;4912678;28;95733;-71
2022/03/20 10:59:19;;;;;;;6.65;3.97;;;14.80;28.50;15.20;102760.00;;;;4938887;28;94009;-72
2022/03/20 11:01:45;;;;;;;8.60;3.50;;;15.00;28.50;15.30;102749.00;;;;4936574;28;97625;-72
2022/03/20 11:04:13;;;;;;;4.93;3.22;;;15.10;27.80;15.20;102746.00;;;;4915519;28;93032;-72
2022/03/20 11:06:44;;;;;;;4.32;3.08;;;15.10;27.50;15.30;102754.00;;;;4928062;28;94266;-71
2022/03/20 11:09:10;;;;;;;3.40;2.53;;;15.10;28.00;15.20;102751.00;;;;4928520;28;94023;-72
2022/03/20 11:11:58;;;;;;;4.40;2.90;;;15.10;27.70;15.00;102755.00;;;;4934903;28;92721;-72
2022/03/20 11:14:27;;;;;;;3.15;2.67;;;15.00;27.50;14.90;102743.00;;;;4912017;28;93390;-71
2022/03/20 11:17:06;;;;;;;6.60;3.28;;;14.90;27.30;14.50;102734.00;;;;4933061;28;93394;-71
2022/03/20 11:19:35;;;;;;;5.18;3.35;;;14.60;27.30;14.60;102727.00;;;;4899435;28;95442;-72
2022/03/20 11:22:05;;;;;;;3.67;2.67;;;14.60;27.80;14.80;102729.00;;;;4917438;28;93085;-72